sensor_id;sensor_type;location;lat;lon;timestamp;P1;durP1;ratioP1;P2;durP2;ratioP2
24617;SDS011;12762;51.730;5.356;2022-09-09T00:09:58;3.93;;;1.30;;
24617;SDS011;12762;51.730;5.356;2022-09-09T00:12:31;3.53;;;1.10;;
24617;SDS011;12762;51.730;5.356;2022-09-09T00:15:11;4.13;;;1.10;;
24617;SDS011;12762;51.730;5.356;2022-09-09T00:17:46;2.93;;;1.00;;
24617;SDS011;12762;51.730;5.356;2022-09-09T00:20:34;4.67;;;1.33;;
24617;SDS011;12762;51.730;5.356;2022-09-09T00:23:17;2.63;;;1.27;;
24617;SDS011;12762;51.730;5.356;2022-09-09T00:28:31;4.53;;;1.33;;
24617;SDS011;12762;51.730;5.356;2022-09-09T00:31:13;3.90;;;1.10;;
24617;SDS011;12762;51.730;5.356;2022-09-09T00:33:45;3.53;;;1.40;;
24617;SDS011;12762;51.730;5.356;2022-09-09T00:36:14;2.87;;;1.40;;
24617;SDS011;12762;51.730;5.356;2022-09-09T00:38:48;3.33;;;1.40;;
24617;SDS011;12762;51.730;5.356;2022-09-09T00:41:22;2.83;;;1.60;;
24617;SDS011;12762;51.730;5.356;2022-09-09T00:58:27;2.37;;;1.23;;
24617;SDS011;12762;51.730;5.356;2022-09-09T01:00:58;4.93;;;1.60;;
24617;SDS011;12762;51.730;5.356;2022-09-09T01:03:52;2.47;;;1.50;;
24617;SDS011;12762;51.730;5.356;2022-09-09T01:11:25;3.77;;;1.90;;
24617;SDS011;12762;51.730;5.356;2022-09-09T01:14:16;2.97;;;1.60;;
24617;SDS011;12762;51.730;5.356;2022-09-09T01:16:45;4.50;;;1.80;;
24617;SDS011;12762;51.730;5.356;2022-09-09T01:19:18;5.13;;;2.00;;
24617;SDS011;12762;51.730;5.356;2022-09-09T01:21:56;2.67;;;1.77;;
24617;SDS011;12762;51.730;5.356;2022-09-09T01:27:28;4.53;;;1.57;;
24617;SDS011;12762;51.730;5.356;2022-09-09T01:29:56;2.47;;;1.60;;
24617;SDS011;12762;51.730;5.356;2022-09-09T01:32:37;4.53;;;1.70;;
24617;SDS011;12762;51.730;5.356;2022-09-09T01:35:06;5.80;;;1.73;;
24617;SDS011;12762;51.730;5.356;2022-09-09T01:37:37;4.23;;;1.73;;
24617;SDS011;12762;51.730;5.356;2022-09-09T01:40:04;7.70;;;1.93;;
24617;SDS011;12762;51.730;5.356;2022-09-09T01:42:31;3.23;;;1.83;;
24617;SDS011;12762;51.730;5.356;2022-09-09T01:44:58;5.00;;;1.80;;
24617;SDS011;12762;51.730;5.356;2022-09-09T01:47:25;3.87;;;1.90;;
24617;SDS011;12762;51.730;5.356;2022-09-09T01:49:52;3.93;;;2.00;;
24617;SDS011;12762;51.730;5.356;2022-09-09T01:52:19;5.93;;;1.70;;
24617;SDS011;12762;51.730;5.356;2022-09-09T01:54:46;3.40;;;2.00;;
24617;SDS011;12762;51.730;5.356;2022-09-09T01:57:18;3.67;;;2.10;;
24617;SDS011;12762;51.730;5.356;2022-09-09T02:05:38;3.63;;;1.90;;
24617;SDS011;12762;51.730;5.356;2022-09-09T02:08:16;4.17;;;1.90;;
24617;SDS011;12762;51.730;5.356;2022-09-09T02:10:54;4.53;;;2.00;;
24617;SDS011;12762;51.730;5.356;2022-09-09T02:13:26;5.50;;;2.07;;
24617;SDS011;12762;51.730;5.356;2022-09-09T02:16:03;4.27;;;2.17;;
24617;SDS011;12762;51.730;5.356;2022-09-09T02:21:49;5.30;;;1.83;;
24617;SDS011;12762;51.730;5.356;2022-09-09T02:24:19;3.73;;;1.90;;
24617;SDS011;12762;51.730;5.356;2022-09-09T02:26:47;7.30;;;2.23;;
24617;SDS011;12762;51.730;5.356;2022-09-09T02:29:28;4.63;;;2.07;;
24617;SDS011;12762;51.730;5.356;2022-09-09T02:32:00;7.97;;;2.50;;
24617;SDS011;12762;51.730;5.356;2022-09-09T02:34:32;5.03;;;2.10;;
24617;SDS011;12762;51.730;5.356;2022-09-09T02:37:06;5.73;;;2.60;;
24617;SDS011;12762;51.730;5.356;2022-09-09T02:39:35;7.20;;;2.40;;
24617;SDS011;12762;51.730;5.356;2022-09-09T02:42:03;5.17;;;2.10;;
24617;SDS011;12762;51.730;5.356;2022-09-09T02:44:31;11.30;;;2.30;;
24617;SDS011;12762;51.730;5.356;2022-09-09T02:49:44;4.50;;;2.30;;
24617;SDS011;12762;51.730;5.356;2022-09-09T02:55:17;7.80;;;2.50;;
24617;SDS011;12762;51.730;5.356;2022-09-09T02:57:47;4.60;;;2.20;;
24617;SDS011;12762;51.730;5.356;2022-09-09T03:00:16;4.80;;;2.33;;
24617;SDS011;12762;51.730;5.356;2022-09-09T03:02:50;6.87;;;2.13;;
24617;SDS011;12762;51.730;5.356;2022-09-09T03:05:17;4.70;;;2.50;;
24617;SDS011;12762;51.730;5.356;2022-09-09T03:07:44;3.60;;;2.10;;
24617;SDS011;12762;51.730;5.356;2022-09-09T03:10:13;5.50;;;2.40;;
24617;SDS011;12762;51.730;5.356;2022-09-09T03:12:40;6.90;;;2.40;;
24617;SDS011;12762;51.730;5.356;2022-09-09T03:15:07;8.13;;;2.50;;
24617;SDS011;12762;51.730;5.356;2022-09-09T03:17:34;4.33;;;2.40;;
24617;SDS011;12762;51.730;5.356;2022-09-09T03:20:02;5.93;;;2.70;;
24617;SDS011;12762;51.730;5.356;2022-09-09T03:22:30;3.80;;;2.00;;
24617;SDS011;12762;51.730;5.356;2022-09-09T03:24:57;6.40;;;2.33;;
24617;SDS011;12762;51.730;5.356;2022-09-09T03:27:23;6.97;;;2.30;;
24617;SDS011;12762;51.730;5.356;2022-09-09T03:29:50;5.37;;;2.53;;
24617;SDS011;12762;51.730;5.356;2022-09-09T03:32:18;4.87;;;2.90;;
24617;SDS011;12762;51.730;5.356;2022-09-09T03:34:44;8.00;;;2.60;;
24617;SDS011;12762;51.730;5.356;2022-09-09T03:37:13;3.87;;;2.40;;
24617;SDS011;12762;51.730;5.356;2022-09-09T03:39:40;6.47;;;2.37;;
24617;SDS011;12762;51.730;5.356;2022-09-09T03:42:07;5.33;;;2.37;;
24617;SDS011;12762;51.730;5.356;2022-09-09T03:44:33;6.43;;;2.67;;
24617;SDS011;12762;51.730;5.356;2022-09-09T03:47:00;6.07;;;2.67;;
24617;SDS011;12762;51.730;5.356;2022-09-09T03:49:27;5.77;;;2.57;;
24617;SDS011;12762;51.730;5.356;2022-09-09T03:51:55;5.97;;;2.53;;
24617;SDS011;12762;51.730;5.356;2022-09-09T03:54:23;6.17;;;2.60;;
24617;SDS011;12762;51.730;5.356;2022-09-09T03:56:50;9.03;;;2.97;;
24617;SDS011;12762;51.730;5.356;2022-09-09T03:59:17;6.03;;;2.10;;
24617;SDS011;12762;51.730;5.356;2022-09-09T04:01:44;7.30;;;2.83;;
24617;SDS011;12762;51.730;5.356;2022-09-09T04:04:11;4.63;;;2.47;;
24617;SDS011;12762;51.730;5.356;2022-09-09T04:06:38;7.80;;;2.90;;
24617;SDS011;12762;51.730;5.356;2022-09-09T04:09:05;9.03;;;2.90;;
24617;SDS011;12762;51.730;5.356;2022-09-09T04:11:32;5.43;;;2.70;;
24617;SDS011;12762;51.730;5.356;2022-09-09T04:13:59;6.73;;;2.57;;
24617;SDS011;12762;51.730;5.356;2022-09-09T04:16:26;8.17;;;2.90;;
24617;SDS011;12762;51.730;5.356;2022-09-09T04:18:53;8.70;;;2.93;;
24617;SDS011;12762;51.730;5.356;2022-09-09T04:21:20;7.27;;;2.40;;
24617;SDS011;12762;51.730;5.356;2022-09-09T04:23:47;6.00;;;2.70;;
24617;SDS011;12762;51.730;5.356;2022-09-09T04:26:14;5.90;;;2.60;;
24617;SDS011;12762;51.730;5.356;2022-09-09T04:28:41;14.77;;;2.90;;
24617;SDS011;12762;51.730;5.356;2022-09-09T04:31:14;8.03;;;2.90;;
24617;SDS011;12762;51.730;5.356;2022-09-09T04:33:44;8.80;;;2.73;;
24617;SDS011;12762;51.730;5.356;2022-09-09T04:36:11;6.93;;;3.17;;
24617;SDS011;12762;51.730;5.356;2022-09-09T04:38:38;5.50;;;2.90;;
24617;SDS011;12762;51.730;5.356;2022-09-09T04:41:05;10.33;;;2.43;;
24617;SDS011;12762;51.730;5.356;2022-09-09T04:43:33;5.43;;;2.23;;
24617;SDS011;12762;51.730;5.356;2022-09-09T04:46:00;6.60;;;2.63;;
24617;SDS011;12762;51.730;5.356;2022-09-09T04:48:27;6.73;;;2.47;;
24617;SDS011;12762;51.730;5.356;2022-09-09T04:50:55;11.03;;;2.60;;
24617;SDS011;12762;51.730;5.356;2022-09-09T04:53:30;6.87;;;2.10;;
24617;SDS011;12762;51.730;5.356;2022-09-09T04:56:05;8.50;;;2.43;;
24617;SDS011;12762;51.730;5.356;2022-09-09T04:58:34;9.03;;;2.40;;
24617;SDS011;12762;51.730;5.356;2022-09-09T05:01:12;7.60;;;2.70;;
24617;SDS011;12762;51.730;5.356;2022-09-09T05:03:44;7.00;;;2.50;;
24617;SDS011;12762;51.730;5.356;2022-09-09T05:06:12;6.43;;;2.30;;
24617;SDS011;12762;51.730;5.356;2022-09-09T05:08:41;7.83;;;2.43;;
24617;SDS011;12762;51.730;5.356;2022-09-09T05:13:51;10.00;;;2.47;;
24617;SDS011;12762;51.730;5.356;2022-09-09T05:16:23;7.37;;;2.23;;
24617;SDS011;12762;51.730;5.356;2022-09-09T05:18:52;6.23;;;2.83;;
24617;SDS011;12762;51.730;5.356;2022-09-09T05:21:19;6.77;;;2.30;;
24617;SDS011;12762;51.730;5.356;2022-09-09T05:23:47;6.83;;;2.50;;
24617;SDS011;12762;51.730;5.356;2022-09-09T05:26:18;5.83;;;2.00;;
24617;SDS011;12762;51.730;5.356;2022-09-09T05:28:49;7.03;;;2.90;;
24617;SDS011;12762;51.730;5.356;2022-09-09T05:31:17;5.37;;;2.37;;
24617;SDS011;12762;51.730;5.356;2022-09-09T05:33:45;8.03;;;1.93;;
24617;SDS011;12762;51.730;5.356;2022-09-09T05:36:16;8.90;;;2.20;;
24617;SDS011;12762;51.730;5.356;2022-09-09T05:38:47;5.10;;;2.00;;
24617;SDS011;12762;51.730;5.356;2022-09-09T05:41:15;7.70;;;2.37;;
24617;SDS011;12762;51.730;5.356;2022-09-09T05:43:43;9.87;;;3.20;;
24617;SDS011;12762;51.730;5.356;2022-09-09T05:46:12;7.57;;;1.90;;
24617;SDS011;12762;51.730;5.356;2022-09-09T05:48:44;8.50;;;2.33;;
24617;SDS011;12762;51.730;5.356;2022-09-09T05:51:26;6.80;;;2.10;;
24617;SDS011;12762;51.730;5.356;2022-09-09T05:53:56;8.20;;;2.23;;
24617;SDS011;12762;51.730;5.356;2022-09-09T05:56:26;7.10;;;2.30;;
24617;SDS011;12762;51.730;5.356;2022-09-09T05:58:57;7.37;;;2.10;;
24617;SDS011;12762;51.730;5.356;2022-09-09T06:01:28;6.67;;;2.00;;
24617;SDS011;12762;51.730;5.356;2022-09-09T06:03:57;5.97;;;2.03;;
24617;SDS011;12762;51.730;5.356;2022-09-09T06:06:30;5.80;;;2.03;;
24617;SDS011;12762;51.730;5.356;2022-09-09T06:08:59;6.93;;;1.97;;
24617;SDS011;12762;51.730;5.356;2022-09-09T06:11:27;8.00;;;2.50;;
24617;SDS011;12762;51.730;5.356;2022-09-09T06:13:59;8.73;;;2.17;;
24617;SDS011;12762;51.730;5.356;2022-09-09T06:16:32;6.47;;;2.03;;
24617;SDS011;12762;51.730;5.356;2022-09-09T06:19:00;7.50;;;2.47;;
24617;SDS011;12762;51.730;5.356;2022-09-09T06:21:33;6.27;;;1.87;;
24617;SDS011;12762;51.730;5.356;2022-09-09T06:24:05;9.30;;;1.97;;
24617;SDS011;12762;51.730;5.356;2022-09-09T06:26:37;9.43;;;2.17;;
24617;SDS011;12762;51.730;5.356;2022-09-09T06:29:07;6.77;;;2.20;;
24617;SDS011;12762;51.730;5.356;2022-09-09T06:31:34;5.47;;;1.93;;
24617;SDS011;12762;51.730;5.356;2022-09-09T06:34:06;8.40;;;2.27;;
24617;SDS011;12762;51.730;5.356;2022-09-09T06:36:36;5.47;;;1.80;;
24617;SDS011;12762;51.730;5.356;2022-09-09T06:39:04;11.83;;;2.33;;
24617;SDS011;12762;51.730;5.356;2022-09-09T06:41:39;7.30;;;1.87;;
24617;SDS011;12762;51.730;5.356;2022-09-09T06:44:07;8.90;;;1.90;;
24617;SDS011;12762;51.730;5.356;2022-09-09T06:46:34;7.90;;;2.00;;
24617;SDS011;12762;51.730;5.356;2022-09-09T06:49:01;6.07;;;1.90;;
24617;SDS011;12762;51.730;5.356;2022-09-09T06:51:33;10.70;;;2.10;;
24617;SDS011;12762;51.730;5.356;2022-09-09T06:54:01;9.40;;;2.20;;
24617;SDS011;12762;51.730;5.356;2022-09-09T06:56:30;9.03;;;2.03;;
24617;SDS011;12762;51.730;5.356;2022-09-09T06:58:59;11.43;;;2.33;;
24617;SDS011;12762;51.730;5.356;2022-09-09T07:01:29;7.23;;;2.30;;
24617;SDS011;12762;51.730;5.356;2022-09-09T07:03:58;8.63;;;2.50;;
24617;SDS011;12762;51.730;5.356;2022-09-09T07:06:26;10.13;;;2.53;;
24617;SDS011;12762;51.730;5.356;2022-09-09T07:08:59;6.20;;;2.00;;
24617;SDS011;12762;51.730;5.356;2022-09-09T07:11:28;7.03;;;2.20;;
24617;SDS011;12762;51.730;5.356;2022-09-09T07:13:57;10.70;;;2.53;;
24617;SDS011;12762;51.730;5.356;2022-09-09T07:16:26;12.07;;;2.33;;
24617;SDS011;12762;51.730;5.356;2022-09-09T07:18:58;9.13;;;2.23;;
24617;SDS011;12762;51.730;5.356;2022-09-09T07:21:25;5.40;;;1.90;;
24617;SDS011;12762;51.730;5.356;2022-09-09T07:23:53;9.40;;;2.70;;
24617;SDS011;12762;51.730;5.356;2022-09-09T07:26:24;9.77;;;1.87;;
24617;SDS011;12762;51.730;5.356;2022-09-09T07:28:53;12.00;;;2.00;;
24617;SDS011;12762;51.730;5.356;2022-09-09T07:31:22;7.10;;;2.10;;
24617;SDS011;12762;51.730;5.356;2022-09-09T07:33:54;7.17;;;1.83;;
24617;SDS011;12762;51.730;5.356;2022-09-09T07:36:22;7.03;;;1.80;;
24617;SDS011;12762;51.730;5.356;2022-09-09T07:38:56;9.47;;;1.80;;
24617;SDS011;12762;51.730;5.356;2022-09-09T07:41:32;7.37;;;2.10;;
24617;SDS011;12762;51.730;5.356;2022-09-09T07:44:05;10.30;;;2.40;;
24617;SDS011;12762;51.730;5.356;2022-09-09T07:46:33;9.27;;;2.23;;
24617;SDS011;12762;51.730;5.356;2022-09-09T07:49:06;8.40;;;1.73;;
24617;SDS011;12762;51.730;5.356;2022-09-09T07:51:41;10.53;;;1.97;;
24617;SDS011;12762;51.730;5.356;2022-09-09T07:54:10;7.10;;;2.10;;
24617;SDS011;12762;51.730;5.356;2022-09-09T07:56:39;5.87;;;1.87;;
24617;SDS011;12762;51.730;5.356;2022-09-09T07:59:07;6.63;;;1.67;;
24617;SDS011;12762;51.730;5.356;2022-09-09T08:01:38;8.23;;;1.83;;
24617;SDS011;12762;51.730;5.356;2022-09-09T08:04:08;10.20;;;2.07;;
24617;SDS011;12762;51.730;5.356;2022-09-09T08:06:42;6.50;;;1.73;;
24617;SDS011;12762;51.730;5.356;2022-09-09T08:09:12;11.67;;;1.90;;
24617;SDS011;12762;51.730;5.356;2022-09-09T08:11:40;9.20;;;1.80;;
24617;SDS011;12762;51.730;5.356;2022-09-09T08:14:08;6.17;;;1.70;;
24617;SDS011;12762;51.730;5.356;2022-09-09T08:16:38;12.27;;;2.13;;
24617;SDS011;12762;51.730;5.356;2022-09-09T08:19:07;8.17;;;2.10;;
24617;SDS011;12762;51.730;5.356;2022-09-09T08:21:35;10.07;;;2.60;;
24617;SDS011;12762;51.730;5.356;2022-09-09T08:24:05;6.10;;;1.40;;
24617;SDS011;12762;51.730;5.356;2022-09-09T08:26:38;6.67;;;1.57;;
24617;SDS011;12762;51.730;5.356;2022-09-09T08:29:07;4.90;;;1.60;;
24617;SDS011;12762;51.730;5.356;2022-09-09T08:31:37;6.40;;;1.60;;
24617;SDS011;12762;51.730;5.356;2022-09-09T08:34:06;8.67;;;2.50;;
24617;SDS011;12762;51.730;5.356;2022-09-09T08:36:34;6.40;;;1.57;;
24617;SDS011;12762;51.730;5.356;2022-09-09T08:39:03;6.80;;;1.30;;
24617;SDS011;12762;51.730;5.356;2022-09-09T08:52:39;8.23;;;1.23;;
24617;SDS011;12762;51.730;5.356;2022-09-09T08:58:06;7.60;;;1.47;;
24617;SDS011;12762;51.730;5.356;2022-09-09T09:01:45;8.53;;;2.00;;
24617;SDS011;12762;51.730;5.356;2022-09-09T09:04:26;5.93;;;1.67;;
24617;SDS011;12762;51.730;5.356;2022-09-09T09:07:18;9.97;;;1.43;;
24617;SDS011;12762;51.730;5.356;2022-09-09T09:10:02;7.17;;;1.30;;
24617;SDS011;12762;51.730;5.356;2022-09-09T09:13:17;5.67;;;1.67;;
24617;SDS011;12762;51.730;5.356;2022-09-09T09:15:58;6.27;;;1.63;;
24617;SDS011;12762;51.730;5.356;2022-09-09T09:18:30;5.63;;;1.70;;
24617;SDS011;12762;51.730;5.356;2022-09-09T09:21:03;4.37;;;1.17;;
24617;SDS011;12762;51.730;5.356;2022-09-09T09:23:40;7.93;;;1.40;;
24617;SDS011;12762;51.730;5.356;2022-09-09T09:26:14;7.47;;;1.47;;
24617;SDS011;12762;51.730;5.356;2022-09-09T09:28:41;7.07;;;1.60;;
24617;SDS011;12762;51.730;5.356;2022-09-09T09:31:11;9.60;;;1.73;;
24617;SDS011;12762;51.730;5.356;2022-09-09T09:33:48;8.53;;;2.17;;
24617;SDS011;12762;51.730;5.356;2022-09-09T09:36:23;7.63;;;1.50;;
24617;SDS011;12762;51.730;5.356;2022-09-09T09:38:59;7.23;;;1.47;;
24617;SDS011;12762;51.730;5.356;2022-09-09T09:41:47;7.07;;;1.63;;
24617;SDS011;12762;51.730;5.356;2022-09-09T09:46:52;8.77;;;1.67;;
24617;SDS011;12762;51.730;5.356;2022-09-09T09:49:34;6.07;;;1.67;;
24617;SDS011;12762;51.730;5.356;2022-09-09T09:52:04;4.33;;;1.40;;
24617;SDS011;12762;51.730;5.356;2022-09-09T09:54:38;8.40;;;1.77;;
24617;SDS011;12762;51.730;5.356;2022-09-09T09:57:11;4.10;;;1.90;;
24617;SDS011;12762;51.730;5.356;2022-09-09T09:59:41;8.17;;;1.43;;
24617;SDS011;12762;51.730;5.356;2022-09-09T10:02:16;9.03;;;1.70;;
24617;SDS011;12762;51.730;5.356;2022-09-09T10:08:27;8.37;;;1.80;;
24617;SDS011;12762;51.730;5.356;2022-09-09T10:11:02;9.67;;;1.97;;
24617;SDS011;12762;51.730;5.356;2022-09-09T10:13:44;8.60;;;2.00;;
24617;SDS011;12762;51.730;5.356;2022-09-09T10:19:01;7.63;;;2.00;;
24617;SDS011;12762;51.730;5.356;2022-09-09T10:24:55;6.43;;;1.90;;
24617;SDS011;12762;51.730;5.356;2022-09-09T10:33:51;8.53;;;2.27;;
24617;SDS011;12762;51.730;5.356;2022-09-09T10:36:28;6.80;;;2.10;;
24617;SDS011;12762;51.730;5.356;2022-09-09T10:39:09;6.70;;;2.20;;
24617;SDS011;12762;51.730;5.356;2022-09-09T10:44:38;10.20;;;2.37;;
24617;SDS011;12762;51.730;5.356;2022-09-09T10:50:11;6.00;;;2.17;;
24617;SDS011;12762;51.730;5.356;2022-09-09T10:56:05;6.20;;;2.30;;
24617;SDS011;12762;51.730;5.356;2022-09-09T11:01:10;9.10;;;2.13;;
24617;SDS011;12762;51.730;5.356;2022-09-09T11:03:47;7.83;;;2.20;;
24617;SDS011;12762;51.730;5.356;2022-09-09T11:06:22;9.07;;;2.17;;
24617;SDS011;12762;51.730;5.356;2022-09-09T11:08:56;10.27;;;2.27;;
24617;SDS011;12762;51.730;5.356;2022-09-09T11:11:31;6.90;;;2.07;;
24617;SDS011;12762;51.730;5.356;2022-09-09T11:14:09;5.90;;;1.73;;
24617;SDS011;12762;51.730;5.356;2022-09-09T11:16:46;4.63;;;1.70;;
24617;SDS011;12762;51.730;5.356;2022-09-09T11:24:59;5.50;;;1.83;;
24617;SDS011;12762;51.730;5.356;2022-09-09T11:36:33;9.43;;;2.10;;
24617;SDS011;12762;51.730;5.356;2022-09-09T11:38:52;6.17;;;2.00;;
24617;SDS011;12762;51.730;5.356;2022-09-09T11:41:23;5.90;;;1.90;;
24617;SDS011;12762;51.730;5.356;2022-09-09T11:44:08;7.97;;;2.27;;
24617;SDS011;12762;51.730;5.356;2022-09-09T11:46:44;6.87;;;2.30;;
24617;SDS011;12762;51.730;5.356;2022-09-09T11:49:26;5.97;;;1.60;;
24617;SDS011;12762;51.730;5.356;2022-09-09T11:55:09;4.43;;;1.90;;
24617;SDS011;12762;51.730;5.356;2022-09-09T11:57:56;6.23;;;1.60;;
24617;SDS011;12762;51.730;5.356;2022-09-09T12:00:44;8.53;;;2.00;;
24617;SDS011;12762;51.730;5.356;2022-09-09T12:03:33;7.07;;;2.00;;
24617;SDS011;12762;51.730;5.356;2022-09-09T12:06:17;6.47;;;2.00;;
24617;SDS011;12762;51.730;5.356;2022-09-09T12:08:48;8.07;;;1.67;;
24617;SDS011;12762;51.730;5.356;2022-09-09T12:11:29;7.37;;;1.90;;
24617;SDS011;12762;51.730;5.356;2022-09-09T12:14:04;6.73;;;2.03;;
24617;SDS011;12762;51.730;5.356;2022-09-09T12:16:32;4.77;;;1.80;;
24617;SDS011;12762;51.730;5.356;2022-09-09T12:19:05;6.13;;;1.60;;
24617;SDS011;12762;51.730;5.356;2022-09-09T12:28:06;4.47;;;1.77;;
24617;SDS011;12762;51.730;5.356;2022-09-09T12:33:25;5.10;;;1.60;;
24617;SDS011;12762;51.730;5.356;2022-09-09T12:36:02;6.73;;;1.87;;
24617;SDS011;12762;51.730;5.356;2022-09-09T12:38:34;6.87;;;1.70;;
24617;SDS011;12762;51.730;5.356;2022-09-09T12:41:03;5.47;;;1.83;;
24617;SDS011;12762;51.730;5.356;2022-09-09T12:43:30;7.50;;;1.63;;
24617;SDS011;12762;51.730;5.356;2022-09-09T12:45:59;6.63;;;1.93;;
24617;SDS011;12762;51.730;5.356;2022-09-09T12:48:31;6.57;;;1.67;;
24617;SDS011;12762;51.730;5.356;2022-09-09T12:51:05;3.23;;;1.70;;
24617;SDS011;12762;51.730;5.356;2022-09-09T12:53:42;4.83;;;1.50;;
24617;SDS011;12762;51.730;5.356;2022-09-09T12:56:21;6.40;;;1.77;;
24617;SDS011;12762;51.730;5.356;2022-09-09T12:58:53;4.63;;;1.83;;
24617;SDS011;12762;51.730;5.356;2022-09-09T13:01:26;4.80;;;1.63;;
24617;SDS011;12762;51.730;5.356;2022-09-09T13:03:55;5.13;;;1.87;;
24617;SDS011;12762;51.730;5.356;2022-09-09T13:06:23;4.87;;;1.70;;
24617;SDS011;12762;51.730;5.356;2022-09-09T13:08:59;7.73;;;1.50;;
24617;SDS011;12762;51.730;5.356;2022-09-09T13:11:34;5.37;;;1.30;;
24617;SDS011;12762;51.730;5.356;2022-09-09T13:14:05;3.27;;;1.60;;
24617;SDS011;12762;51.730;5.356;2022-09-09T13:16:33;4.27;;;1.40;;
24617;SDS011;12762;51.730;5.356;2022-09-09T13:19:08;3.40;;;1.33;;
24617;SDS011;12762;51.730;5.356;2022-09-09T13:21:39;5.37;;;1.43;;
24617;SDS011;12762;51.730;5.356;2022-09-09T13:24:21;2.23;;;0.90;;
24617;SDS011;12762;51.730;5.356;2022-09-09T13:29:31;3.97;;;1.50;;
24617;SDS011;12762;51.730;5.356;2022-09-09T13:32:17;6.57;;;1.80;;
24617;SDS011;12762;51.730;5.356;2022-09-09T13:37:49;6.37;;;1.77;;
24617;SDS011;12762;51.730;5.356;2022-09-09T13:40:17;3.60;;;1.23;;
24617;SDS011;12762;51.730;5.356;2022-09-09T13:42:47;4.53;;;1.40;;
24617;SDS011;12762;51.730;5.356;2022-09-09T13:45:25;4.70;;;1.30;;
24617;SDS011;12762;51.730;5.356;2022-09-09T13:47:55;5.73;;;1.47;;
24617;SDS011;12762;51.730;5.356;2022-09-09T13:50:26;4.70;;;1.27;;
24617;SDS011;12762;51.730;5.356;2022-09-09T13:52:55;4.00;;;1.13;;
24617;SDS011;12762;51.730;5.356;2022-09-09T13:55:27;4.80;;;1.10;;
24617;SDS011;12762;51.730;5.356;2022-09-09T13:57:59;2.97;;;1.17;;
24617;SDS011;12762;51.730;5.356;2022-09-09T14:00:33;4.37;;;1.40;;
24617;SDS011;12762;51.730;5.356;2022-09-09T14:03:03;3.10;;;1.20;;
24617;SDS011;12762;51.730;5.356;2022-09-09T14:05:31;4.47;;;1.20;;
24617;SDS011;12762;51.730;5.356;2022-09-09T14:07:59;5.23;;;1.73;;
24617;SDS011;12762;51.730;5.356;2022-09-09T14:10:27;6.07;;;1.50;;
24617;SDS011;12762;51.730;5.356;2022-09-09T14:12:53;3.20;;;1.20;;
24617;SDS011;12762;51.730;5.356;2022-09-09T14:15:20;3.83;;;1.50;;
24617;SDS011;12762;51.730;5.356;2022-09-09T14:17:48;4.63;;;1.10;;
24617;SDS011;12762;51.730;5.356;2022-09-09T14:20:14;5.33;;;1.43;;
24617;SDS011;12762;51.730;5.356;2022-09-09T14:22:43;5.50;;;1.40;;
24617;SDS011;12762;51.730;5.356;2022-09-09T14:25:10;4.97;;;1.00;;
24617;SDS011;12762;51.730;5.356;2022-09-09T14:27:39;3.97;;;1.20;;
24617;SDS011;12762;51.730;5.356;2022-09-09T14:30:06;1.83;;;0.80;;
24617;SDS011;12762;51.730;5.356;2022-09-09T14:32:38;4.57;;;1.00;;
24617;SDS011;12762;51.730;5.356;2022-09-09T14:35:04;4.97;;;1.00;;
24617;SDS011;12762;51.730;5.356;2022-09-09T14:37:31;5.33;;;1.03;;
24617;SDS011;12762;51.730;5.356;2022-09-09T14:39:58;3.47;;;1.17;;
24617;SDS011;12762;51.730;5.356;2022-09-09T14:42:29;5.10;;;1.20;;
24617;SDS011;12762;51.730;5.356;2022-09-09T14:44:56;4.93;;;1.00;;
24617;SDS011;12762;51.730;5.356;2022-09-09T14:47:23;2.80;;;1.00;;
24617;SDS011;12762;51.730;5.356;2022-09-09T14:49:50;1.57;;;0.77;;
24617;SDS011;12762;51.730;5.356;2022-09-09T14:52:16;4.10;;;0.97;;
24617;SDS011;12762;51.730;5.356;2022-09-09T14:54:43;2.50;;;0.97;;
24617;SDS011;12762;51.730;5.356;2022-09-09T14:57:10;3.50;;;1.03;;
24617;SDS011;12762;51.730;5.356;2022-09-09T14:59:37;3.63;;;0.80;;
24617;SDS011;12762;51.730;5.356;2022-09-09T15:02:04;5.03;;;1.27;;
24617;SDS011;12762;51.730;5.356;2022-09-09T15:04:31;3.87;;;1.40;;
24617;SDS011;12762;51.730;5.356;2022-09-09T15:06:58;3.20;;;1.10;;
24617;SDS011;12762;51.730;5.356;2022-09-09T15:09:25;5.40;;;1.30;;
24617;SDS011;12762;51.730;5.356;2022-09-09T15:11:51;3.70;;;1.23;;
24617;SDS011;12762;51.730;5.356;2022-09-09T15:14:18;4.87;;;1.40;;
24617;SDS011;12762;51.730;5.356;2022-09-09T15:16:50;4.57;;;1.20;;
24617;SDS011;12762;51.730;5.356;2022-09-09T15:19:17;3.37;;;1.47;;
24617;SDS011;12762;51.730;5.356;2022-09-09T15:21:44;2.90;;;1.20;;
24617;SDS011;12762;51.730;5.356;2022-09-09T15:24:11;3.50;;;1.40;;
24617;SDS011;12762;51.730;5.356;2022-09-09T15:26:39;5.20;;;1.50;;
24617;SDS011;12762;51.730;5.356;2022-09-09T15:29:06;3.47;;;1.50;;
24617;SDS011;12762;51.730;5.356;2022-09-09T15:31:34;4.30;;;1.60;;
24617;SDS011;12762;51.730;5.356;2022-09-09T15:34:02;2.53;;;1.30;;
24617;SDS011;12762;51.730;5.356;2022-09-09T15:36:32;3.77;;;1.60;;
24617;SDS011;12762;51.730;5.356;2022-09-09T15:39:02;3.07;;;1.47;;
24617;SDS011;12762;51.730;5.356;2022-09-09T15:41:39;4.20;;;1.50;;
24617;SDS011;12762;51.730;5.356;2022-09-09T15:44:06;2.90;;;1.33;;
24617;SDS011;12762;51.730;5.356;2022-09-09T15:46:37;2.57;;;1.00;;
24617;SDS011;12762;51.730;5.356;2022-09-09T15:49:07;3.23;;;1.30;;
24617;SDS011;12762;51.730;5.356;2022-09-09T15:51:55;3.40;;;0.87;;
24617;SDS011;12762;51.730;5.356;2022-09-09T15:54:35;3.20;;;1.27;;
24617;SDS011;12762;51.730;5.356;2022-09-09T15:57:05;4.33;;;1.20;;
24617;SDS011;12762;51.730;5.356;2022-09-09T15:59:34;2.33;;;1.10;;
24617;SDS011;12762;51.730;5.356;2022-09-09T16:02:01;2.60;;;1.37;;
24617;SDS011;12762;51.730;5.356;2022-09-09T16:04:29;3.77;;;1.47;;
24617;SDS011;12762;51.730;5.356;2022-09-09T16:06:57;3.60;;;1.20;;
24617;SDS011;12762;51.730;5.356;2022-09-09T16:09:28;3.67;;;1.27;;
24617;SDS011;12762;51.730;5.356;2022-09-09T16:11:59;3.23;;;1.10;;
24617;SDS011;12762;51.730;5.356;2022-09-09T16:14:27;4.23;;;1.10;;
24617;SDS011;12762;51.730;5.356;2022-09-09T16:16:55;2.30;;;1.30;;
24617;SDS011;12762;51.730;5.356;2022-09-09T16:19:22;3.57;;;1.30;;
24617;SDS011;12762;51.730;5.356;2022-09-09T16:21:49;3.80;;;1.40;;
24617;SDS011;12762;51.730;5.356;2022-09-09T16:24:17;3.30;;;1.30;;
24617;SDS011;12762;51.730;5.356;2022-09-09T16:26:54;5.90;;;1.47;;
24617;SDS011;12762;51.730;5.356;2022-09-09T16:29:22;3.67;;;1.23;;
24617;SDS011;12762;51.730;5.356;2022-09-09T16:31:49;3.37;;;1.70;;
24617;SDS011;12762;51.730;5.356;2022-09-09T16:34:17;5.30;;;1.77;;
24617;SDS011;12762;51.730;5.356;2022-09-09T16:36:44;4.93;;;2.10;;
24617;SDS011;12762;51.730;5.356;2022-09-09T16:39:16;5.80;;;1.70;;
24617;SDS011;12762;51.730;5.356;2022-09-09T16:41:44;5.30;;;1.97;;
24617;SDS011;12762;51.730;5.356;2022-09-09T16:44:14;2.50;;;1.70;;
24617;SDS011;12762;51.730;5.356;2022-09-09T16:46:43;4.33;;;1.77;;
24617;SDS011;12762;51.730;5.356;2022-09-09T16:49:12;4.73;;;2.17;;
24617;SDS011;12762;51.730;5.356;2022-09-09T16:51:47;3.00;;;2.00;;
24617;SDS011;12762;51.730;5.356;2022-09-09T16:54:16;5.37;;;2.17;;
24617;SDS011;12762;51.730;5.356;2022-09-09T16:56:45;6.70;;;2.10;;
24617;SDS011;12762;51.730;5.356;2022-09-09T16:59:14;2.67;;;1.70;;
24617;SDS011;12762;51.730;5.356;2022-09-09T17:01:44;4.07;;;2.13;;
24617;SDS011;12762;51.730;5.356;2022-09-09T17:04:13;3.23;;;2.50;;
24617;SDS011;12762;51.730;5.356;2022-09-09T17:06:48;5.63;;;2.70;;
24617;SDS011;12762;51.730;5.356;2022-09-09T17:09:16;4.10;;;2.43;;
24617;SDS011;12762;51.730;5.356;2022-09-09T17:11:43;4.63;;;2.27;;
24617;SDS011;12762;51.730;5.356;2022-09-09T17:14:13;3.67;;;2.37;;
24617;SDS011;12762;51.730;5.356;2022-09-09T17:16:42;6.37;;;2.50;;
24617;SDS011;12762;51.730;5.356;2022-09-09T17:19:10;6.77;;;2.60;;
24617;SDS011;12762;51.730;5.356;2022-09-09T17:21:37;4.40;;;2.10;;